sensor_id;sensor_type;location;lat;lon;timestamp;pressure;altitude;pressure_sealevel;temperature;humidity
58243;BME280;50118;53.232;8.252;2023-08-24T00:01:39;101769.28;;;15.27;100.00
58243;BME280;50118;53.232;8.252;2023-08-24T00:04:04;101770.56;;;15.23;100.00
58243;BME280;50118;53.232;8.252;2023-08-24T00:06:30;101776.56;;;15.17;100.00
58243;BME280;50118;53.232;8.252;2023-08-24T00:08:55;101777.16;;;15.11;100.00
58243;BME280;50118;53.232;8.252;2023-08-24T00:11:21;101765.03;;;15.07;100.00
58243;BME280;50118;53.232;8.252;2023-08-24T00:13:48;101768.16;;;15.02;100.00
58243;BME280;50118;53.232;8.252;2023-08-24T00:16:19;101767.91;;;14.96;100.00
58243;BME280;50118;53.232;8.252;2023-08-24T00:18:45;101770.88;;;14.92;100.00
58243;BME280;50118;53.232;8.252;2023-08-24T00:21:13;101765.66;;;14.91;100.00
58243;BME280;50118;53.232;8.252;2023-08-24T00:23:42;101762.59;;;14.86;100.00
58243;BME280;50118;53.232;8.252;2023-08-24T00:26:07;101769.09;;;14.83;100.00
58243;BME280;50118;53.232;8.252;2023-08-24T00:28:33;101765.31;;;14.76;100.00
58243;BME280;50118;53.232;8.252;2023-08-24T00:31:02;101772.94;;;14.71;100.00
58243;BME280;50118;53.232;8.252;2023-08-24T00:33:27;101770.88;;;14.65;100.00
58243;BME280;50118;53.232;8.252;2023-08-24T00:35:53;101773.69;;;14.63;100.00
58243;BME280;50118;53.232;8.252;2023-08-24T00:38:18;101768.03;;;14.56;100.00
58243;BME280;50118;53.232;8.252;2023-08-24T00:40:44;101771.16;;;14.52;100.00
58243;BME280;50118;53.232;8.252;2023-08-24T00:43:09;101763.56;;;14.47;100.00
58243;BME280;50118;53.232;8.252;2023-08-24T00:45:35;101774.28;;;14.47;100.00
58243;BME280;50118;53.232;8.252;2023-08-24T00:48:01;101762.97;;;14.44;100.00
58243;BME280;50118;53.232;8.252;2023-08-24T00:50:27;101768.09;;;14.37;100.00
58243;BME280;50118;53.232;8.252;2023-08-24T00:52:53;101760.63;;;14.31;100.00
58243;BME280;50118;53.232;8.252;2023-08-24T00:55:20;101756.53;;;14.27;100.00
58243;BME280;50118;53.232;8.252;2023-08-24T00:57:46;101764.16;;;14.22;100.00
58243;BME280;50118;53.232;8.252;2023-08-24T01:00:12;101761.38;;;14.13;100.00
58243;BME280;50118;53.232;8.252;2023-08-24T01:02:39;101761.66;;;14.10;100.00
58243;BME280;50118;53.232;8.252;2023-08-24T01:05:05;101754.88;;;14.06;100.00
58243;BME280;50118;53.232;8.252;2023-08-24T01:07:33;101755.19;;;14.03;100.00
58243;BME280;50118;53.232;8.252;2023-08-24T01:09:59;101755.47;;;14.00;100.00
58243;BME280;50118;53.232;8.252;2023-08-24T01:15:43;101747.31;;;13.92;100.00
58243;BME280;50118;53.232;8.252;2023-08-24T01:18:14;101755.91;;;13.86;100.00
58243;BME280;50118;53.232;8.252;2023-08-24T01:20:45;101746.88;;;13.87;100.00
58243;BME280;50118;53.232;8.252;2023-08-24T01:26:13;101752.09;;;13.78;100.00
58243;BME280;50118;53.232;8.252;2023-08-24T01:28:40;101752.50;;;13.74;100.00
58243;BME280;50118;53.232;8.252;2023-08-24T01:31:07;101754.06;;;13.67;100.00
58243;BME280;50118;53.232;8.252;2023-08-24T01:33:33;101748.16;;;13.63;100.00
58243;BME280;50118;53.232;8.252;2023-08-24T01:35:59;101745.47;;;13.63;100.00
58243;BME280;50118;53.232;8.252;2023-08-24T01:38:27;101750.13;;;13.61;100.00
58243;BME280;50118;53.232;8.252;2023-08-24T01:43:30;101747.31;;;13.53;100.00
58243;BME280;50118;53.232;8.252;2023-08-24T01:45:59;101740.25;;;13.52;100.00
58243;BME280;50118;53.232;8.252;2023-08-24T01:48:25;101736.19;;;13.48;100.00
58243;BME280;50118;53.232;8.252;2023-08-24T01:50:51;101737.16;;;13.47;100.00
58243;BME280;50118;53.232;8.252;2023-08-24T01:53:17;101742.50;;;13.47;100.00
58243;BME280;50118;53.232;8.252;2023-08-24T01:55:45;101740.84;;;13.45;100.00
58243;BME280;50118;53.232;8.252;2023-08-24T01:58:10;101738.56;;;13.41;100.00
58243;BME280;50118;53.232;8.252;2023-08-24T02:00:36;101739.72;;;13.38;100.00
58243;BME280;50118;53.232;8.252;2023-08-24T02:03:01;101736.28;;;13.36;100.00
58243;BME280;50118;53.232;8.252;2023-08-24T02:05:27;101734.50;;;13.37;100.00
58243;BME280;50118;53.232;8.252;2023-08-24T02:07:54;101734.91;;;13.32;100.00
58243;BME280;50118;53.232;8.252;2023-08-24T02:10:20;101734.91;;;13.32;100.00
58243;BME280;50118;53.232;8.252;2023-08-24T02:12:46;101736.59;;;13.33;100.00
58243;BME280;50118;53.232;8.252;2023-08-24T02:15:11;101738.50;;;13.31;100.00
58243;BME280;50118;53.232;8.252;2023-08-24T02:17:37;101736.84;;;13.30;100.00
58243;BME280;50118;53.232;8.252;2023-08-24T02:20:03;101739.41;;;13.32;100.00
58243;BME280;50118;53.232;8.252;2023-08-24T02:22:29;101741.94;;;13.33;100.00
58243;BME280;50118;53.232;8.252;2023-08-24T02:24:55;101735.00;;;13.31;100.00
58243;BME280;50118;53.232;8.252;2023-08-24T02:27:21;101734.06;;;13.32;100.00
58243;BME280;50118;53.232;8.252;2023-08-24T02:29:46;101729.53;;;13.32;100.00
58243;BME280;50118;53.232;8.252;2023-08-24T02:32:12;101725.13;;;13.31;100.00
58243;BME280;50118;53.232;8.252;2023-08-24T02:34:37;101728.28;;;13.36;100.00
58243;BME280;50118;53.232;8.252;2023-08-24T02:37:04;101720.53;;;13.33;100.00
58243;BME280;50118;53.232;8.252;2023-08-24T02:39:29;101719.53;;;13.34;100.00
58243;BME280;50118;53.232;8.252;2023-08-24T02:41:57;101702.50;;;13.35;100.00
58243;BME280;50118;53.232;8.252;2023-08-24T02:44:23;101700.13;;;13.32;100.00
58243;BME280;50118;53.232;8.252;2023-08-24T02:46:48;101691.13;;;13.33;100.00
58243;BME280;50118;53.232;8.252;2023-08-24T02:49:14;101690.09;;;13.34;100.00
58243;BME280;50118;53.232;8.252;2023-08-24T02:51:40;101692.78;;;13.34;100.00
58243;BME280;50118;53.232;8.252;2023-08-24T02:54:06;101683.91;;;13.34;100.00
58243;BME280;50118;53.232;8.252;2023-08-24T02:56:31;101681.63;;;13.29;100.00
58243;BME280;50118;53.232;8.252;2023-08-24T02:58:57;101686.72;;;13.32;100.00
58243;BME280;50118;53.232;8.252;2023-08-24T03:01:25;101686.72;;;13.32;100.00
58243;BME280;50118;53.232;8.252;2023-08-24T03:03:52;101684.75;;;13.34;100.00
58243;BME280;50118;53.232;8.252;2023-08-24T03:06:17;101682.91;;;13.35;100.00
58243;BME280;50118;53.232;8.252;2023-08-24T03:08:42;101681.09;;;13.35;100.00
58243;BME280;50118;53.232;8.252;2023-08-24T03:11:08;101682.50;;;13.39;100.00
58243;BME280;50118;53.232;8.252;2023-08-24T03:13:36;101686.75;;;13.42;100.00
58243;BME280;50118;53.232;8.252;2023-08-24T03:16:04;101685.59;;;13.44;100.00
58243;BME280;50118;53.232;8.252;2023-08-24T03:18:30;101691.50;;;13.48;100.00
58243;BME280;50118;53.232;8.252;2023-08-24T03:20:55;101699.13;;;13.53;100.00
58243;BME280;50118;53.232;8.252;2023-08-24T03:23:20;101688.44;;;13.53;100.00
58243;BME280;50118;53.232;8.252;2023-08-24T03:25:47;101685.88;;;13.51;100.00
58243;BME280;50118;53.232;8.252;2023-08-24T03:28:12;101692.06;;;13.52;100.00
58243;BME280;50118;53.232;8.252;2023-08-24T03:30:44;101687.44;;;13.54;100.00
58243;BME280;50118;53.232;8.252;2023-08-24T03:33:10;101699.97;;;13.53;100.00
58243;BME280;50118;53.232;8.252;2023-08-24T03:35:35;101699.81;;;13.55;100.00
58243;BME280;50118;53.232;8.252;2023-08-24T03:38:01;101697.84;;;13.57;100.00
58243;BME280;50118;53.232;8.252;2023-08-24T03:40:27;101692.34;;;13.58;100.00
58243;BME280;50118;53.232;8.252;2023-08-24T03:42:52;101690.41;;;13.60;100.00
58243;BME280;50118;53.232;8.252;2023-08-24T03:45:19;101693.22;;;13.59;100.00
58243;BME280;50118;53.232;8.252;2023-08-24T03:47:44;101691.53;;;13.58;100.00
58243;BME280;50118;53.232;8.252;2023-08-24T03:50:10;101687.88;;;13.59;100.00
58243;BME280;50118;53.232;8.252;2023-08-24T03:52:35;101685.88;;;13.61;100.00
58243;BME280;50118;53.232;8.252;2023-08-24T03:55:00;101688.69;;;13.59;100.00
58243;BME280;50118;53.232;8.252;2023-08-24T03:57:27;101682.06;;;13.63;100.00
58243;BME280;50118;53.232;8.252;2023-08-24T03:59:52;101684.75;;;13.63;100.00
58243;BME280;50118;53.232;8.252;2023-08-24T04:02:18;101684.19;;;13.60;100.00
58243;BME280;50118;53.232;8.252;2023-08-24T04:04:44;101686.88;;;13.60;100.00
58243;BME280;50118;53.232;8.252;2023-08-24T04:07:09;101691.53;;;13.58;100.00
58243;BME280;50118;53.232;8.252;2023-08-24T04:09:34;101698.84;;;13.56;100.00
58243;BME280;50118;53.232;8.252;2023-08-24T04:12:00;101702.78;;;13.52;100.00
58243;BME280;50118;53.232;8.252;2023-08-24T04:14:25;101700.41;;;13.49;100.00
58243;BME280;50118;53.232;8.252;2023-08-24T04:16:51;101706.31;;;13.52;100.00
58243;BME280;50118;53.232;8.252;2023-08-24T04:19:17;101689.81;;;13.57;100.00
58243;BME280;50118;53.232;8.252;2023-08-24T04:21:43;101682.78;;;13.56;100.00
58243;BME280;50118;53.232;8.252;2023-08-24T04:24:08;101680.81;;;13.58;100.00
58243;BME280;50118;53.232;8.252;2023-08-24T04:26:33;101685.47;;;13.66;100.00
58243;BME280;50118;53.232;8.252;2023-08-24T04:28:59;101689.53;;;13.70;100.00
58243;BME280;50118;53.232;8.252;2023-08-24T04:31:24;101692.34;;;13.68;100.00
58243;BME280;50118;53.232;8.252;2023-08-24T04:33:50;101687.56;;;13.62;100.00
58243;BME280;50118;53.232;8.252;2023-08-24T04:36:15;101688.16;;;13.66;100.00
58243;BME280;50118;53.232;8.252;2023-08-24T04:38:47;101679.66;;;13.70;100.00
58243;BME280;50118;53.232;8.252;2023-08-24T04:41:12;101673.75;;;13.76;100.00
58243;BME280;50118;53.232;8.252;2023-08-24T04:43:38;101680.22;;;13.83;100.00
58243;BME280;50118;53.232;8.252;2023-08-24T04:46:04;101680.63;;;13.89;100.00
58243;BME280;50118;53.232;8.252;2023-08-24T04:48:29;101685.00;;;13.90;100.00
58243;BME280;50118;53.232;8.252;2023-08-24T04:51:00;101693.75;;;13.92;100.00
58243;BME280;50118;53.232;8.252;2023-08-24T04:53:26;101699.09;;;13.92;100.00
58243;BME280;50118;53.232;8.252;2023-08-24T04:55:52;101708.38;;;13.97;100.00
58243;BME280;50118;53.232;8.252;2023-08-24T04:58:24;101703.44;;;14.02;100.00
58243;BME280;50118;53.232;8.252;2023-08-24T05:01:02;101701.03;;;14.09;100.00
58243;BME280;50118;53.232;8.252;2023-08-24T05:03:28;101715.13;;;14.11;100.00
58243;BME280;50118;53.232;8.252;2023-08-24T05:05:53;101706.94;;;14.13;100.00
58243;BME280;50118;53.232;8.252;2023-08-24T05:08:19;101707.91;;;14.22;100.00
58243;BME280;50118;53.232;8.252;2023-08-24T05:10:44;101708.88;;;14.30;100.00
58243;BME280;50118;53.232;8.252;2023-08-24T05:13:10;101712.22;;;14.42;100.00
58243;BME280;50118;53.232;8.252;2023-08-24T05:15:36;101699.78;;;14.51;100.00
58243;BME280;50118;53.232;8.252;2023-08-24T05:18:01;101688.72;;;14.54;100.00
58243;BME280;50118;53.232;8.252;2023-08-24T05:20:27;101695.41;;;14.60;100.00
58243;BME280;50118;53.232;8.252;2023-08-24T05:22:53;101697.78;;;14.63;100.00
58243;BME280;50118;53.232;8.252;2023-08-24T05:25:21;101686.44;;;14.69;100.00
58243;BME280;50118;53.232;8.252;2023-08-24T05:27:47;101684.34;;;14.90;100.00
58243;BME280;50118;53.232;8.252;2023-08-24T05:30:12;101692.50;;;14.99;100.00
58243;BME280;50118;53.232;8.252;2023-08-24T05:32:38;101674.09;;;15.04;100.00
58243;BME280;50118;53.232;8.252;2023-08-24T05:35:08;101679.47;;;15.04;100.00
58243;BME280;50118;53.232;8.252;2023-08-24T05:37:34;101679.22;;;15.15;100.00
58243;BME280;50118;53.232;8.252;2023-08-24T05:40:00;101676.72;;;15.31;100.00
58243;BME280;50118;53.232;8.252;2023-08-24T05:42:27;101674.03;;;15.49;100.00
58243;BME280;50118;53.232;8.252;2023-08-24T05:45:05;101669.09;;;15.63;100.00
58243;BME280;50118;53.232;8.252;2023-08-24T05:47:31;101678.38;;;15.68;100.00
58243;BME280;50118;53.232;8.252;2023-08-24T05:49:56;101673.16;;;15.85;100.00
58243;BME280;50118;53.232;8.252;2023-08-24T05:52:25;101667.84;;;16.28;100.00
58243;BME280;50118;53.232;8.252;2023-08-24T05:54:58;101677.56;;;16.47;100.00
58243;BME280;50118;53.232;8.252;2023-08-24T05:57:23;101679.31;;;16.64;100.00
58243;BME280;50118;53.232;8.252;2023-08-24T06:00:14;101684.50;;;17.00;100.00
58243;BME280;50118;53.232;8.252;2023-08-24T06:02:41;101678.81;;;17.85;100.00
58243;BME280;50118;53.232;8.252;2023-08-24T06:05:07;101675.59;;;18.62;100.00
58243;BME280;50118;53.232;8.252;2023-08-24T06:07:33;101671.88;;;19.26;100.00
58243;BME280;50118;53.232;8.252;2023-08-24T06:09:59;101669.97;;;20.11;100.00
58243;BME280;50118;53.232;8.252;2023-08-24T06:12:27;101675.91;;;20.51;100.00
58243;BME280;50118;53.232;8.252;2023-08-24T06:14:52;101673.78;;;20.76;98.35
58243;BME280;50118;53.232;8.252;2023-08-24T06:17:18;101679.31;;;21.26;96.29
58243;BME280;50118;53.232;8.252;2023-08-24T06:19:43;101670.81;;;22.07;89.63
58243;BME280;50118;53.232;8.252;2023-08-24T06:22:09;101672.41;;;23.46;80.08
58243;BME280;50118;53.232;8.252;2023-08-24T06:24:35;101676.88;;;24.53;75.59
58243;BME280;50118;53.232;8.252;2023-08-24T06:27:00;101673.81;;;25.77;69.72
58243;BME280;50118;53.232;8.252;2023-08-24T06:29:28;101674.72;;;27.00;62.66
58243;BME280;50118;53.232;8.252;2023-08-24T06:31:53;101671.56;;;27.57;56.37
58243;BME280;50118;53.232;8.252;2023-08-24T06:34:19;101670.53;;;27.93;57.68
58243;BME280;50118;53.232;8.252;2023-08-24T06:36:44;101676.16;;;27.45;58.90
58243;BME280;50118;53.232;8.252;2023-08-24T06:39:09;101668.03;;;28.04;56.90
58243;BME280;50118;53.232;8.252;2023-08-24T06:41:35;101663.41;;;27.92;55.63
58243;BME280;50118;53.232;8.252;2023-08-24T06:44:01;101662.00;;;28.42;53.15
58243;BME280;50118;53.232;8.252;2023-08-24T06:46:27;101662.97;;;28.77;51.83
58243;BME280;50118;53.232;8.252;2023-08-24T06:48:52;101661.19;;;28.99;49.76
58243;BME280;50118;53.232;8.252;2023-08-24T06:51:18;101658.72;;;29.15;49.86
58243;BME280;50118;53.232;8.252;2023-08-24T06:53:43;101657.28;;;29.24;52.51
58243;BME280;50118;53.232;8.252;2023-08-24T06:56:09;101654.56;;;27.13;55.90
58243;BME280;50118;53.232;8.252;2023-08-24T06:58:34;101666.84;;;26.43;57.08
58243;BME280;50118;53.232;8.252;2023-08-24T07:01:00;101661.09;;;26.33;57.47
58243;BME280;50118;53.232;8.252;2023-08-24T07:03:26;101651.66;;;25.66;62.87
58243;BME280;50118;53.232;8.252;2023-08-24T07:05:51;101652.22;;;25.50;62.15
58243;BME280;50118;53.232;8.252;2023-08-24T07:08:16;101652.31;;;24.66;67.14
58243;BME280;50118;53.232;8.252;2023-08-24T07:10:42;101634.31;;;25.35;64.72
58243;BME280;50118;53.232;8.252;2023-08-24T07:13:08;101626.09;;;26.41;60.52
58243;BME280;50118;53.232;8.252;2023-08-24T07:15:34;101623.94;;;26.62;60.66
58243;BME280;50118;53.232;8.252;2023-08-24T07:18:01;101609.28;;;26.75;60.51
58243;BME280;50118;53.232;8.252;2023-08-24T07:20:26;101601.00;;;27.83;56.22
58243;BME280;50118;53.232;8.252;2023-08-24T07:22:52;101607.47;;;26.20;61.08
58243;BME280;50118;53.232;8.252;2023-08-24T07:25:19;101605.84;;;25.50;63.71
58243;BME280;50118;53.232;8.252;2023-08-24T07:27:46;101612.88;;;26.57;61.59
58243;BME280;50118;53.232;8.252;2023-08-24T07:30:12;101609.06;;;26.58;59.22
58243;BME280;50118;53.232;8.252;2023-08-24T07:32:38;101595.97;;;27.20;57.76
58243;BME280;50118;53.232;8.252;2023-08-24T07:35:03;101597.13;;;25.85;61.98
58243;BME280;50118;53.232;8.252;2023-08-24T07:37:31;101601.84;;;24.05;69.16
58243;BME280;50118;53.232;8.252;2023-08-24T07:39:56;101593.56;;;25.41;65.93
58243;BME280;50118;53.232;8.252;2023-08-24T07:42:22;101588.56;;;25.38;64.25
58243;BME280;50118;53.232;8.252;2023-08-24T07:44:48;101579.47;;;26.73;58.88
58243;BME280;50118;53.232;8.252;2023-08-24T07:47:14;101582.03;;;27.10;59.00
58243;BME280;50118;53.232;8.252;2023-08-24T07:49:39;101578.56;;;25.25;62.83
58243;BME280;50118;53.232;8.252;2023-08-24T07:52:09;101582.22;;;25.44;63.89
58243;BME280;50118;53.232;8.252;2023-08-24T07:54:36;101573.97;;;25.25;63.71
58243;BME280;50118;53.232;8.252;2023-08-24T07:57:01;101574.06;;;25.62;62.78
58243;BME280;50118;53.232;8.252;2023-08-24T07:59:26;101569.44;;;25.63;62.60
58243;BME280;50118;53.232;8.252;2023-08-24T08:01:52;101581.09;;;25.26;66.00
58243;BME280;50118;53.232;8.252;2023-08-24T08:04:17;101571.44;;;25.30;66.37
58243;BME280;50118;53.232;8.252;2023-08-24T08:06:43;101573.97;;;25.69;64.91
58243;BME280;50118;53.232;8.252;2023-08-24T08:09:08;101574.22;;;25.49;62.51
58243;BME280;50118;53.232;8.252;2023-08-24T08:11:33;101565.25;;;26.04;61.77
58243;BME280;50118;53.232;8.252;2023-08-24T08:14:00;101565.25;;;25.60;62.19
58243;BME280;50118;53.232;8.252;2023-08-24T08:16:25;101564.53;;;25.90;63.01
58243;BME280;50118;53.232;8.252;2023-08-24T08:18:50;101569.88;;;26.34;58.37
58243;BME280;50118;53.232;8.252;2023-08-24T08:21:17;101569.81;;;25.66;64.30
58243;BME280;50118;53.232;8.252;2023-08-24T08:23:45;101578.22;;;26.08;59.12
58243;BME280;50118;53.232;8.252;2023-08-24T08:26:12;101580.28;;;26.43;57.59
58243;BME280;50118;53.232;8.252;2023-08-24T08:28:39;101580.28;;;25.88;60.08
58243;BME280;50118;53.232;8.252;2023-08-24T08:31:04;101584.47;;;25.90;59.63
58243;BME280;50118;53.232;8.252;2023-08-24T08:33:30;101587.38;;;26.14;59.58
58243;BME280;50118;53.232;8.252;2023-08-24T08:35:56;101584.59;;;25.77;61.68
58243;BME280;50118;53.232;8.252;2023-08-24T08:38:21;101584.69;;;26.63;60.18
58243;BME280;50118;53.232;8.252;2023-08-24T08:40:51;101580.31;;;26.06;58.38
58243;BME280;50118;53.232;8.252;2023-08-24T08:43:19;101577.97;;;26.59;58.54
58243;BME280;50118;53.232;8.252;2023-08-24T08:45:47;101577.28;;;25.96;57.61
58243;BME280;50118;53.232;8.252;2023-08-24T08:48:14;101569.41;;;26.06;57.52
58243;BME280;50118;53.232;8.252;2023-08-24T08:50:39;101572.94;;;26.56;59.02
58243;BME280;50118;53.232;8.252;2023-08-24T08:53:05;101582.69;;;27.36;55.64
58243;BME280;50118;53.232;8.252;2023-08-24T08:55:30;101574.56;;;26.63;58.17
58243;BME280;50118;53.232;8.252;2023-08-24T08:57:56;101557.97;;;26.46;57.45
58243;BME280;50118;53.232;8.252;2023-08-24T09:00:24;101547.25;;;26.15;58.54
58243;BME280;50118;53.232;8.252;2023-08-24T09:02:51;101540.38;;;25.31;63.60
58243;BME280;50118;53.232;8.252;2023-08-24T09:05:18;101544.88;;;26.67;59.64
58243;BME280;50118;53.232;8.252;2023-08-24T09:07:45;101552.38;;;27.37;57.06
58243;BME280;50118;53.232;8.252;2023-08-24T09:10:12;101551.28;;;27.27;59.24
58243;BME280;50118;53.232;8.252;2023-08-24T09:12:38;101557.66;;;27.91;57.05
58243;BME280;50118;53.232;8.252;2023-08-24T09:15:06;101557.09;;;27.89;55.50
58243;BME280;50118;53.232;8.252;2023-08-24T09:17:33;101550.31;;;27.09;57.24
58243;BME280;50118;53.232;8.252;2023-08-24T09:20:01;101534.38;;;27.77;55.22
58243;BME280;50118;53.232;8.252;2023-08-24T09:22:36;101531.22;;;26.67;60.34
58243;BME280;50118;53.232;8.252;2023-08-24T09:25:02;101531.41;;;27.19;56.17
58243;BME280;50118;53.232;8.252;2023-08-24T09:27:32;101528.53;;;26.91;58.40
58243;BME280;50118;53.232;8.252;2023-08-24T09:29:57;101546.84;;;26.60;60.76
58243;BME280;50118;53.232;8.252;2023-08-24T09:32:30;101539.53;;;26.72;59.37
58243;BME280;50118;53.232;8.252;2023-08-24T09:35:02;101531.75;;;27.82;57.57
58243;BME280;50118;53.232;8.252;2023-08-24T09:37:32;101528.41;;;27.80;56.48
58243;BME280;50118;53.232;8.252;2023-08-24T09:40:02;101506.63;;;27.73;54.99
58243;BME280;50118;53.232;8.252;2023-08-24T09:42:37;101492.28;;;27.54;56.05
58243;BME280;50118;53.232;8.252;2023-08-24T09:45:04;101480.63;;;26.76;60.33
58243;BME280;50118;53.232;8.252;2023-08-24T09:47:29;101472.09;;;26.96;58.58
58243;BME280;50118;53.232;8.252;2023-08-24T09:49:55;101475.06;;;27.42;55.99
58243;BME280;50118;53.232;8.252;2023-08-24T09:52:21;101480.50;;;26.83;60.74
58243;BME280;50118;53.232;8.252;2023-08-24T09:54:47;101471.28;;;27.31;58.53
58243;BME280;50118;53.232;8.252;2023-08-24T09:57:14;101467.22;;;27.34;58.83
58243;BME280;50118;53.232;8.252;2023-08-24T09:59:41;101468.03;;;27.46;58.24
58243;BME280;50118;53.232;8.252;2023-08-24T10:02:15;101470.28;;;26.67;62.89
58243;BME280;50118;53.232;8.252;2023-08-24T10:04:43;101461.13;;;27.55;56.84
58243;BME280;50118;53.232;8.252;2023-08-24T10:07:11;101458.91;;;27.29;57.58
58243;BME280;50118;53.232;8.252;2023-08-24T10:09:47;101459.41;;;27.78;56.67
58243;BME280;50118;53.232;8.252;2023-08-24T10:12:18;101457.38;;;27.73;55.25
58243;BME280;50118;53.232;8.252;2023-08-24T10:14:58;101445.69;;;27.02;58.92
58243;BME280;50118;53.232;8.252;2023-08-24T10:17:25;101439.75;;;27.29;56.75
58243;BME280;50118;53.232;8.252;2023-08-24T10:19:52;101444.50;;;27.21;56.63
58243;BME280;50118;53.232;8.252;2023-08-24T10:22:19;101429.16;;;27.20;57.30
58243;BME280;50118;53.232;8.252;2023-08-24T10:24:47;101440.72;;;26.75;58.62
58243;BME280;50118;53.232;8.252;2023-08-24T10:27:13;101434.91;;;25.81;64.08
58243;BME280;50118;53.232;8.252;2023-08-24T10:29:39;101436.09;;;26.45;61.57
58243;BME280;50118;53.232;8.252;2023-08-24T10:32:05;101432.50;;;26.63;62.58
58243;BME280;50118;53.232;8.252;2023-08-24T10:34:32;101427.88;;;27.11;59.34
58243;BME280;50118;53.232;8.252;2023-08-24T10:37:09;101425.94;;;27.24;58.52
58243;BME280;50118;53.232;8.252;2023-08-24T10:39:35;101423.06;;;26.05;61.39
58243;BME280;50118;53.232;8.252;2023-08-24T10:42:03;101415.47;;;25.59;64.88
58243;BME280;50118;53.232;8.252;2023-08-24T10:44:35;101418.25;;;25.70;64.60
58243;BME280;50118;53.232;8.252;2023-08-24T10:47:20;101418.09;;;25.10;67.97
58243;BME280;50118;53.232;8.252;2023-08-24T10:52:21;101414.44;;;26.08;63.30
58243;BME280;50118;53.232;8.252;2023-08-24T10:54:52;101412.75;;;26.07;64.04
58243;BME280;50118;53.232;8.252;2023-08-24T10:57:35;101405.09;;;26.28;61.45
58243;BME280;50118;53.232;8.252;2023-08-24T11:00:09;101396.66;;;25.69;66.06
58243;BME280;50118;53.232;8.252;2023-08-24T11:02:45;101394.84;;;25.07;70.01
58243;BME280;50118;53.232;8.252;2023-08-24T11:05:22;101387.41;;;26.19;65.06
58243;BME280;50118;53.232;8.252;2023-08-24T11:07:51;101381.78;;;26.02;66.11
58243;BME280;50118;53.232;8.252;2023-08-24T11:10:17;101381.44;;;25.24;69.59
58243;BME280;50118;53.232;8.252;2023-08-24T11:15:34;101368.44;;;25.45;66.63
58243;BME280;50118;53.232;8.252;2023-08-24T11:20:51;101348.25;;;25.95;64.66
58243;BME280;50118;53.232;8.252;2023-08-24T11:23:17;101342.53;;;25.17;69.87
58243;BME280;50118;53.232;8.252;2023-08-24T11:25:44;101339.22;;;26.36;64.18
58243;BME280;50118;53.232;8.252;2023-08-24T11:28:09;101334.81;;;26.94;62.75
58243;BME280;50118;53.232;8.252;2023-08-24T11:30:35;101316.06;;;26.74;61.66
58243;BME280;50118;53.232;8.252;2023-08-24T11:33:01;101315.41;;;27.19;60.47
58243;BME280;50118;53.232;8.252;2023-08-24T11:35:28;101316.38;;;27.01;60.83
58243;BME280;50118;53.232;8.252;2023-08-24T11:37:57;101313.44;;;25.78;66.49
58243;BME280;50118;53.232;8.252;2023-08-24T11:40:22;101310.13;;;25.46;67.41
58243;BME280;50118;53.232;8.252;2023-08-24T11:42:54;101312.84;;;26.30;63.72
58243;BME280;50118;53.232;8.252;2023-08-24T11:45:20;101312.03;;;26.77;61.11
58243;BME280;50118;53.232;8.252;2023-08-24T11:47:46;101307.72;;;27.05;61.94
58243;BME280;50118;53.232;8.252;2023-08-24T11:50:12;101315.94;;;26.93;62.46
58243;BME280;50118;53.232;8.252;2023-08-24T11:52:43;101312.56;;;27.72;58.92
58243;BME280;50118;53.232;8.252;2023-08-24T11:55:10;101312.38;;;27.62;57.54
58243;BME280;50118;53.232;8.252;2023-08-24T11:57:36;101283.78;;;28.15;55.21
58243;BME280;50118;53.232;8.252;2023-08-24T12:00:05;101299.03;;;28.28;55.70
58243;BME280;50118;53.232;8.252;2023-08-24T12:02:32;101303.88;;;27.75;59.03
58243;BME280;50118;53.232;8.252;2023-08-24T12:04:58;101299.34;;;27.81;55.62
58243;BME280;50118;53.232;8.252;2023-08-24T12:07:24;101294.94;;;27.80;57.16
58243;BME280;50118;53.232;8.252;2023-08-24T12:09:51;101277.41;;;27.06;58.19
58243;BME280;50118;53.232;8.252;2023-08-24T12:12:19;101266.44;;;27.47;58.40
58243;BME280;50118;53.232;8.252;2023-08-24T12:14:47;101252.06;;;26.46;62.96
58243;BME280;50118;53.232;8.252;2023-08-24T12:17:13;101251.31;;;27.15;60.15
58243;BME280;50118;53.232;8.252;2023-08-24T12:19:43;101247.03;;;26.91;60.30
58243;BME280;50118;53.232;8.252;2023-08-24T12:22:19;101247.75;;;26.86;61.56
58243;BME280;50118;53.232;8.252;2023-08-24T12:24:45;101246.94;;;27.14;62.25
58243;BME280;50118;53.232;8.252;2023-08-24T12:27:22;101249.28;;;27.23;59.85
58243;BME280;50118;53.232;8.252;2023-08-24T12:29:48;101251.69;;;27.48;60.61
58243;BME280;50118;53.232;8.252;2023-08-24T12:32:15;101247.72;;;27.27;60.42
58243;BME280;50118;53.232;8.252;2023-08-24T12:34:41;101246.28;;;27.36;59.18
58243;BME280;50118;53.232;8.252;2023-08-24T12:37:08;101239.31;;;27.28;60.33
58243;BME280;50118;53.232;8.252;2023-08-24T12:39:35;101245.22;;;27.37;59.23
58243;BME280;50118;53.232;8.252;2023-08-24T12:42:02;101234.41;;;27.30;57.68
58243;BME280;50118;53.232;8.252;2023-08-24T12:44:27;101228.94;;;26.90;59.93
58243;BME280;50118;53.232;8.252;2023-08-24T12:46:53;101223.78;;;27.05;60.60
58243;BME280;50118;53.232;8.252;2023-08-24T12:49:18;101230.22;;;26.70;61.13
58243;BME280;50118;53.232;8.252;2023-08-24T12:51:44;101235.59;;;26.94;62.02
58243;BME280;50118;53.232;8.252;2023-08-24T12:54:09;101240.28;;;26.58;61.13
58243;BME280;50118;53.232;8.252;2023-08-24T12:56:35;101245.09;;;26.91;59.78
58243;BME280;50118;53.232;8.252;2023-08-24T12:59:00;101241.13;;;26.70;60.30
58243;BME280;50118;53.232;8.252;2023-08-24T13:01:26;101243.22;;;26.80;62.25